sensor_id;sensor_type;location;lat;lon;timestamp;pressure;altitude;pressure_sealevel;temperature;humidity
48041;BME280;33815;48.386;11.738;2024-03-23T00:55:35;95951.38;;;5.35;100.00
48041;BME280;33815;48.386;11.738;2024-03-23T00:58:01;95962.38;;;5.37;100.00
48041;BME280;33815;48.386;11.738;2024-03-23T01:00:26;95955.84;;;5.32;100.00
48041;BME280;33815;48.386;11.738;2024-03-23T01:02:51;95949.00;;;5.22;100.00
48041;BME280;33815;48.386;11.738;2024-03-23T01:05:16;95954.59;;;5.17;100.00
48041;BME280;33815;48.386;11.738;2024-03-23T01:07:42;95929.94;;;5.03;100.00
48041;BME280;33815;48.386;11.738;2024-03-23T01:10:07;95935.94;;;5.04;100.00
48041;BME280;33815;48.386;11.738;2024-03-23T01:12:32;95928.84;;;4.96;100.00
48041;BME280;33815;48.386;11.738;2024-03-23T01:14:58;95928.97;;;4.94;100.00
48041;BME280;33815;48.386;11.738;2024-03-23T01:17:23;95915.72;;;4.78;100.00
48041;BME280;33815;48.386;11.738;2024-03-23T01:19:48;95936.41;;;4.88;100.00
48041;BME280;33815;48.386;11.738;2024-03-23T01:22:13;95918.44;;;4.76;100.00
48041;BME280;33815;48.386;11.738;2024-03-23T01:24:39;95904.41;;;4.69;100.00
48041;BME280;33815;48.386;11.738;2024-03-23T01:27:04;95906.31;;;4.67;100.00
48041;BME280;33815;48.386;11.738;2024-03-23T01:29:29;95908.34;;;4.63;100.00
48041;BME280;33815;48.386;11.738;2024-03-23T01:31:55;95908.03;;;4.57;100.00
48041;BME280;33815;48.386;11.738;2024-03-23T01:34:20;95898.50;;;4.48;100.00
48041;BME280;33815;48.386;11.738;2024-03-23T01:36:46;95911.28;;;4.49;100.00
48041;BME280;33815;48.386;11.738;2024-03-23T01:39:12;95906.59;;;4.43;100.00
48041;BME280;33815;48.386;11.738;2024-03-23T01:41:37;95901.16;;;4.36;100.00
48041;BME280;33815;48.386;11.738;2024-03-23T01:44:07;95906.56;;;4.33;100.00
48041;BME280;33815;48.386;11.738;2024-03-23T01:46:33;95911.72;;;4.33;100.00
48041;BME280;33815;48.386;11.738;2024-03-23T01:48:59;95892.94;;;4.21;100.00
48041;BME280;33815;48.386;11.738;2024-03-23T01:51:24;95893.06;;;4.20;100.00
48041;BME280;33815;48.386;11.738;2024-03-23T01:53:50;95891.25;;;4.10;100.00
48041;BME280;33815;48.386;11.738;2024-03-23T01:56:16;95892.88;;;4.11;100.00
48041;BME280;33815;48.386;11.738;2024-03-23T01:58:41;95875.03;;;3.99;100.00
48041;BME280;33815;48.386;11.738;2024-03-23T02:01:06;95879.75;;;3.93;100.00
48041;BME280;33815;48.386;11.738;2024-03-23T02:03:31;95874.59;;;3.93;100.00
48041;BME280;33815;48.386;11.738;2024-03-23T02:05:57;95872.50;;;4.08;100.00
48041;BME280;33815;48.386;11.738;2024-03-23T02:08:23;95879.00;;;4.03;100.00
48041;BME280;33815;48.386;11.738;2024-03-23T02:10:49;95870.56;;;4.01;100.00
48041;BME280;33815;48.386;11.738;2024-03-23T02:13:16;95856.34;;;3.85;100.00
48041;BME280;33815;48.386;11.738;2024-03-23T02:15:41;95864.09;;;3.85;100.00
48041;BME280;33815;48.386;11.738;2024-03-23T02:18:07;95864.22;;;3.84;100.00
48041;BME280;33815;48.386;11.738;2024-03-23T02:20:34;95845.66;;;3.69;100.00
48041;BME280;33815;48.386;11.738;2024-03-23T02:23:00;95860.38;;;3.78;100.00
48041;BME280;33815;48.386;11.738;2024-03-23T02:25:25;95858.75;;;3.77;100.00
48041;BME280;33815;48.386;11.738;2024-03-23T02:27:50;95820.00;;;3.46;100.00
48041;BME280;33815;48.386;11.738;2024-03-23T02:30:15;95858.13;;;3.64;100.00
48041;BME280;33815;48.386;11.738;2024-03-23T02:32:41;95850.44;;;3.52;100.00
48041;BME280;33815;48.386;11.738;2024-03-23T02:35:06;95846.91;;;3.53;100.00
48041;BME280;33815;48.386;11.738;2024-03-23T02:37:31;95842.84;;;3.51;100.00
48041;BME280;33815;48.386;11.738;2024-03-23T02:39:58;95846.34;;;3.50;100.00
48041;BME280;33815;48.386;11.738;2024-03-23T02:42:23;95841.94;;;3.40;100.00
48041;BME280;33815;48.386;11.738;2024-03-23T02:44:48;95820.19;;;3.33;100.00
48041;BME280;33815;48.386;11.738;2024-03-23T02:47:14;95840.88;;;3.43;100.00
48041;BME280;33815;48.386;11.738;2024-03-23T02:49:39;95818.94;;;3.28;100.00
48041;BME280;33815;48.386;11.738;2024-03-23T02:52:04;95824.09;;;3.28;100.00
48041;BME280;33815;48.386;11.738;2024-03-23T02:54:29;95817.34;;;3.15;100.00
48041;BME280;33815;48.386;11.738;2024-03-23T02:56:55;95828.78;;;3.22;100.00
48041;BME280;33815;48.386;11.738;2024-03-23T02:59:20;95809.28;;;3.08;100.00
48041;BME280;33815;48.386;11.738;2024-03-23T03:01:45;95819.91;;;3.15;100.00
48041;BME280;33815;48.386;11.738;2024-03-23T03:04:11;95809.28;;;3.08;100.00
48041;BME280;33815;48.386;11.738;2024-03-23T03:06:36;95817.59;;;3.12;100.00
48041;BME280;33815;48.386;11.738;2024-03-23T03:09:01;95818.53;;;3.11;100.00
48041;BME280;33815;48.386;11.738;2024-03-23T03:11:27;95800.19;;;3.04;100.00
48041;BME280;33815;48.386;11.738;2024-03-23T03:13:52;95808.47;;;3.08;100.00
48041;BME280;33815;48.386;11.738;2024-03-23T03:16:17;95807.09;;;3.04;100.00
48041;BME280;33815;48.386;11.738;2024-03-23T03:18:42;95801.25;;;3.02;100.00
48041;BME280;33815;48.386;11.738;2024-03-23T03:21:09;95796.22;;;3.00;100.00
48041;BME280;33815;48.386;11.738;2024-03-23T03:23:39;95801.94;;;3.04;100.00
48041;BME280;33815;48.386;11.738;2024-03-23T03:26:05;95800.28;;;3.03;100.00
48041;BME280;33815;48.386;11.738;2024-03-23T03:28:33;95773.66;;;2.92;100.00
48041;BME280;33815;48.386;11.738;2024-03-23T03:30:59;95792.69;;;3.01;100.00
48041;BME280;33815;48.386;11.738;2024-03-23T03:33:26;95795.41;;;3.00;100.00
48041;BME280;33815;48.386;11.738;2024-03-23T03:35:52;95789.56;;;2.98;100.00
48041;BME280;33815;48.386;11.738;2024-03-23T03:38:18;95772.66;;;2.84;100.00
48041;BME280;33815;48.386;11.738;2024-03-23T03:40:43;95765.84;;;2.83;100.00
48041;BME280;33815;48.386;11.738;2024-03-23T03:43:08;95773.69;;;2.81;100.00
48041;BME280;33815;48.386;11.738;2024-03-23T03:45:34;95777.88;;;2.94;100.00
48041;BME280;33815;48.386;11.738;2024-03-23T03:47:59;95784.66;;;2.95;100.00
48041;BME280;33815;48.386;11.738;2024-03-23T03:50:24;95770.50;;;2.89;100.00
48041;BME280;33815;48.386;11.738;2024-03-23T03:52:50;95779.19;;;2.88;100.00
48041;BME280;33815;48.386;11.738;2024-03-23T03:55:15;95764.81;;;2.85;100.00
48041;BME280;33815;48.386;11.738;2024-03-23T03:57:41;95761.28;;;2.86;100.00
48041;BME280;33815;48.386;11.738;2024-03-23T04:00:06;95760.59;;;2.84;100.00
48041;BME280;33815;48.386;11.738;2024-03-23T04:02:32;95745.41;;;2.81;100.00
48041;BME280;33815;48.386;11.738;2024-03-23T04:04:57;95722.97;;;2.72;100.00
48041;BME280;33815;48.386;11.738;2024-03-23T04:07:22;95740.44;;;2.89;100.00
48041;BME280;33815;48.386;11.738;2024-03-23T04:09:48;95741.59;;;2.97;100.00
48041;BME280;33815;48.386;11.738;2024-03-23T04:12:14;95727.91;;;2.96;100.00
48041;BME280;33815;48.386;11.738;2024-03-23T04:14:40;95712.00;;;2.91;100.00
48041;BME280;33815;48.386;11.738;2024-03-23T04:17:06;95726.09;;;3.08;100.00
48041;BME280;33815;48.386;11.738;2024-03-23T04:19:31;95721.59;;;3.21;100.00
48041;BME280;33815;48.386;11.738;2024-03-23T04:21:56;95705.50;;;3.29;100.00
48041;BME280;33815;48.386;11.738;2024-03-23T04:24:22;95720.38;;;3.47;100.00
48041;BME280;33815;48.386;11.738;2024-03-23T04:26:47;95703.03;;;3.49;100.00
48041;BME280;33815;48.386;11.738;2024-03-23T04:29:13;95692.84;;;3.47;100.00
48041;BME280;33815;48.386;11.738;2024-03-23T04:31:38;95684.47;;;3.55;100.00
48041;BME280;33815;48.386;11.738;2024-03-23T04:34:03;95686.16;;;3.66;100.00
48041;BME280;33815;48.386;11.738;2024-03-23T04:36:29;95707.78;;;3.84;100.00
48041;BME280;33815;48.386;11.738;2024-03-23T04:38:59;95699.56;;;4.00;100.00
48041;BME280;33815;48.386;11.738;2024-03-23T04:41:24;95695.66;;;4.06;100.00
48041;BME280;33815;48.386;11.738;2024-03-23T04:43:50;95686.84;;;4.08;100.00
48041;BME280;33815;48.386;11.738;2024-03-23T04:46:16;95677.66;;;4.35;100.00
48041;BME280;33815;48.386;11.738;2024-03-23T04:48:41;95671.41;;;4.38;100.00
48041;BME280;33815;48.386;11.738;2024-03-23T04:51:06;95683.38;;;4.58;100.00
48041;BME280;33815;48.386;11.738;2024-03-23T04:53:32;95668.59;;;4.60;100.00
48041;BME280;33815;48.386;11.738;2024-03-23T04:55:58;95669.38;;;4.71;100.00
48041;BME280;33815;48.386;11.738;2024-03-23T04:58:24;95654.59;;;4.73;100.00
48041;BME280;33815;48.386;11.738;2024-03-23T05:00:56;95646.44;;;4.68;100.00
48041;BME280;33815;48.386;11.738;2024-03-23T05:03:22;95653.31;;;4.87;100.00
48041;BME280;33815;48.386;11.738;2024-03-23T05:05:48;95644.78;;;4.96;100.00
48041;BME280;33815;48.386;11.738;2024-03-23T05:08:14;95638.22;;;5.02;100.00
48041;BME280;33815;48.386;11.738;2024-03-23T05:10:41;95645.03;;;5.03;100.00
48041;BME280;33815;48.386;11.738;2024-03-23T05:13:06;95644.91;;;5.04;100.00
48041;BME280;33815;48.386;11.738;2024-03-23T05:15:32;95648.97;;;5.07;100.00
48041;BME280;33815;48.386;11.738;2024-03-23T05:17:57;95642.47;;;5.03;100.00
48041;BME280;33815;48.386;11.738;2024-03-23T05:20:22;95613.66;;;4.88;100.00
48041;BME280;33815;48.386;11.738;2024-03-23T05:22:48;95630.78;;;4.89;100.00
48041;BME280;33815;48.386;11.738;2024-03-23T05:25:13;95621.03;;;4.83;100.00
48041;BME280;33815;48.386;11.738;2024-03-23T05:27:38;95618.16;;;4.95;100.00
48041;BME280;33815;48.386;11.738;2024-03-23T05:30:04;95620.19;;;4.92;100.00
48041;BME280;33815;48.386;11.738;2024-03-23T05:32:31;95623.44;;;4.94;100.00
48041;BME280;33815;48.386;11.738;2024-03-23T05:34:56;95616.25;;;4.78;100.00
48041;BME280;33815;48.386;11.738;2024-03-23T05:37:22;95619.25;;;4.83;100.00
48041;BME280;33815;48.386;11.738;2024-03-23T05:39:47;95607.28;;;4.72;100.00
48041;BME280;33815;48.386;11.738;2024-03-23T05:42:18;95612.72;;;4.79;100.00
48041;BME280;33815;48.386;11.738;2024-03-23T05:44:46;95622.75;;;4.92;100.00
48041;BME280;33815;48.386;11.738;2024-03-23T05:47:13;95623.31;;;4.95;100.00
48041;BME280;33815;48.386;11.738;2024-03-23T05:49:39;95614.22;;;4.91;100.00
48041;BME280;33815;48.386;11.738;2024-03-23T05:52:06;95609.72;;;4.93;100.00
48041;BME280;33815;48.386;11.738;2024-03-23T05:54:32;95608.63;;;4.96;100.00
48041;BME280;33815;48.386;11.738;2024-03-23T05:56:57;95612.56;;;5.00;100.00
48041;BME280;33815;48.386;11.738;2024-03-23T05:59:22;95603.19;;;4.89;100.00
48041;BME280;33815;48.386;11.738;2024-03-23T06:01:47;95599.22;;;4.95;100.00
48041;BME280;33815;48.386;11.738;2024-03-23T06:04:13;95587.97;;;4.86;100.00
48041;BME280;33815;48.386;11.738;2024-03-23T06:06:39;95591.38;;;4.87;100.00
48041;BME280;33815;48.386;11.738;2024-03-23T06:09:04;95592.59;;;5.02;100.00
48041;BME280;33815;48.386;11.738;2024-03-23T06:11:29;95570.00;;;5.04;100.00
48041;BME280;33815;48.386;11.738;2024-03-23T06:13:55;95568.59;;;5.20;100.00
48041;BME280;33815;48.386;11.738;2024-03-23T06:16:21;95566.41;;;5.25;100.00
48041;BME280;33815;48.386;11.738;2024-03-23T06:18:49;95551.59;;;5.17;100.00
48041;BME280;33815;48.386;11.738;2024-03-23T06:21:14;95548.72;;;5.20;100.00
48041;BME280;33815;48.386;11.738;2024-03-23T06:23:41;95560.91;;;5.38;100.00
48041;BME280;33815;48.386;11.738;2024-03-23T06:26:06;95554.06;;;5.46;100.00
48041;BME280;33815;48.386;11.738;2024-03-23T06:28:32;95545.25;;;5.67;100.00
48041;BME280;33815;48.386;11.738;2024-03-23T06:30:57;95542.97;;;5.82;100.00
48041;BME280;33815;48.386;11.738;2024-03-23T06:33:22;95547.94;;;5.93;100.00
48041;BME280;33815;48.386;11.738;2024-03-23T06:35:52;95542.28;;;6.08;100.00
48041;BME280;33815;48.386;11.738;2024-03-23T06:38:18;95526.00;;;6.33;100.00
48041;BME280;33815;48.386;11.738;2024-03-23T06:40:43;95511.50;;;6.41;100.00
48041;BME280;33815;48.386;11.738;2024-03-23T06:43:13;95518.28;;;6.86;100.00
48041;BME280;33815;48.386;11.738;2024-03-23T06:45:38;95500.94;;;7.13;100.00
48041;BME280;33815;48.386;11.738;2024-03-23T06:48:04;95514.69;;;7.56;100.00
48041;BME280;33815;48.386;11.738;2024-03-23T06:50:29;95521.63;;;8.06;100.00
48041;BME280;33815;48.386;11.738;2024-03-23T06:52:54;95503.09;;;8.43;100.00
48041;BME280;33815;48.386;11.738;2024-03-23T06:55:19;95502.28;;;8.83;100.00
48041;BME280;33815;48.386;11.738;2024-03-23T06:57:45;95503.59;;;9.27;100.00
48041;BME280;33815;48.386;11.738;2024-03-23T07:00:11;95499.00;;;10.00;100.00
48041;BME280;33815;48.386;11.738;2024-03-23T07:02:37;95480.63;;;10.63;97.71
48041;BME280;33815;48.386;11.738;2024-03-23T07:05:03;95483.69;;;11.41;90.46
48041;BME280;33815;48.386;11.738;2024-03-23T07:07:28;95495.69;;;11.72;88.82
48041;BME280;33815;48.386;11.738;2024-03-23T07:09:55;95476.41;;;11.73;87.83
48041;BME280;33815;48.386;11.738;2024-03-23T07:12:20;95490.06;;;12.12;84.14
48041;BME280;33815;48.386;11.738;2024-03-23T07:14:46;95472.72;;;12.26;82.08
48041;BME280;33815;48.386;11.738;2024-03-23T07:17:11;95455.88;;;12.28;81.69
48041;BME280;33815;48.386;11.738;2024-03-23T07:19:36;95474.22;;;12.35;83.70
48041;BME280;33815;48.386;11.738;2024-03-23T07:22:02;95467.56;;;12.32;83.22
48041;BME280;33815;48.386;11.738;2024-03-23T07:24:27;95470.25;;;12.39;80.27
48041;BME280;33815;48.386;11.738;2024-03-23T07:26:52;95472.59;;;12.34;80.33
48041;BME280;33815;48.386;11.738;2024-03-23T07:29:19;95482.19;;;12.27;79.63
48041;BME280;33815;48.386;11.738;2024-03-23T07:31:44;95499.50;;;12.28;78.03
48041;BME280;33815;48.386;11.738;2024-03-23T07:34:09;95520.63;;;12.11;81.64
48041;BME280;33815;48.386;11.738;2024-03-23T07:36:35;95503.09;;;11.90;82.65
48041;BME280;33815;48.386;11.738;2024-03-23T07:39:00;95509.91;;;11.70;86.72
48041;BME280;33815;48.386;11.738;2024-03-23T07:41:25;95512.56;;;11.55;87.34
48041;BME280;33815;48.386;11.738;2024-03-23T07:43:53;95530.38;;;11.51;89.63
48041;BME280;33815;48.386;11.738;2024-03-23T07:46:18;95504.91;;;11.38;90.03
48041;BME280;33815;48.386;11.738;2024-03-23T07:48:45;95538.75;;;11.46;90.35
48041;BME280;33815;48.386;11.738;2024-03-23T07:51:15;95535.44;;;11.38;93.48
48041;BME280;33815;48.386;11.738;2024-03-23T07:53:43;95551.50;;;11.11;96.92
48041;BME280;33815;48.386;11.738;2024-03-23T07:56:09;95540.34;;;10.88;100.00
48041;BME280;33815;48.386;11.738;2024-03-23T07:58:37;95570.25;;;10.77;100.00
48041;BME280;33815;48.386;11.738;2024-03-23T08:01:07;95569.88;;;10.65;100.00
48041;BME280;33815;48.386;11.738;2024-03-23T08:03:39;95565.81;;;10.39;100.00
48041;BME280;33815;48.386;11.738;2024-03-23T08:06:18;95576.94;;;10.25;100.00
48041;BME280;33815;48.386;11.738;2024-03-23T08:08:46;95643.69;;;9.38;100.00
48041;BME280;33815;48.386;11.738;2024-03-23T08:11:12;95685.13;;;9.15;100.00
48041;BME280;33815;48.386;11.738;2024-03-23T08:13:41;95660.09;;;8.65;100.00
48041;BME280;33815;48.386;11.738;2024-03-23T08:16:07;95690.78;;;8.53;100.00
48041;BME280;33815;48.386;11.738;2024-03-23T08:18:36;95692.28;;;8.21;100.00
48041;BME280;33815;48.386;11.738;2024-03-23T08:21:03;95703.56;;;8.03;100.00
48041;BME280;33815;48.386;11.738;2024-03-23T08:23:30;95718.44;;;7.93;100.00
48041;BME280;33815;48.386;11.738;2024-03-23T08:26:03;95700.97;;;7.69;100.00
48041;BME280;33815;48.386;11.738;2024-03-23T08:28:29;95700.66;;;7.46;100.00
48041;BME280;33815;48.386;11.738;2024-03-23T08:30:55;95739.94;;;7.51;100.00
48041;BME280;33815;48.386;11.738;2024-03-23T08:33:21;95738.06;;;7.43;100.00
48041;BME280;33815;48.386;11.738;2024-03-23T08:38:19;95759.75;;;7.34;100.00
48041;BME280;33815;48.386;11.738;2024-03-23T08:40:44;95780.31;;;7.35;100.00
48041;BME280;33815;48.386;11.738;2024-03-23T08:43:09;95755.06;;;7.19;100.00
48041;BME280;33815;48.386;11.738;2024-03-23T08:45:35;95785.13;;;7.30;100.00
48041;BME280;33815;48.386;11.738;2024-03-23T08:48:00;95778.31;;;7.29;100.00
48041;BME280;33815;48.386;11.738;2024-03-23T08:50:25;95765.00;;;7.24;100.00
48041;BME280;33815;48.386;11.738;2024-03-23T08:52:51;95783.06;;;7.34;100.00
48041;BME280;33815;48.386;11.738;2024-03-23T08:55:16;95787.22;;;7.27;100.00
48041;BME280;33815;48.386;11.738;2024-03-23T08:57:41;95765.44;;;7.19;100.00
48041;BME280;33815;48.386;11.738;2024-03-23T09:00:07;95776.56;;;7.30;100.00
48041;BME280;33815;48.386;11.738;2024-03-23T09:02:34;95777.66;;;7.27;100.00
48041;BME280;33815;48.386;11.738;2024-03-23T09:04:59;95774.25;;;7.27;100.00
48041;BME280;33815;48.386;11.738;2024-03-23T09:07:32;95789.28;;;7.23;100.00
48041;BME280;33815;48.386;11.738;2024-03-23T09:09:57;95793.50;;;7.24;100.00
48041;BME280;33815;48.386;11.738;2024-03-23T09:12:23;95789.13;;;7.25;100.00
48041;BME280;33815;48.386;11.738;2024-03-23T09:14:49;95801.78;;;7.28;100.00
48041;BME280;33815;48.386;11.738;2024-03-23T09:17:14;95803.44;;;7.29;100.00
48041;BME280;33815;48.386;11.738;2024-03-23T09:19:40;95805.38;;;7.27;100.00
48041;BME280;33815;48.386;11.738;2024-03-23T09:22:05;95806.16;;;7.27;100.00
48041;BME280;33815;48.386;11.738;2024-03-23T09:24:30;95814.59;;;7.29;100.00
48041;BME280;33815;48.386;11.738;2024-03-23T09:26:57;95817.41;;;7.36;100.00
48041;BME280;33815;48.386;11.738;2024-03-23T09:29:22;95826.22;;;7.43;100.00
48041;BME280;33815;48.386;11.738;2024-03-23T09:31:47;95824.47;;;7.44;100.00
48041;BME280;33815;48.386;11.738;2024-03-23T09:34:12;95827.31;;;7.59;100.00
48041;BME280;33815;48.386;11.738;2024-03-23T09:36:38;95831.41;;;7.61;100.00
48041;BME280;33815;48.386;11.738;2024-03-23T09:39:03;95834.16;;;7.60;100.00
48041;BME280;33815;48.386;11.738;2024-03-23T09:41:30;95836.25;;;7.56;100.00
48041;BME280;33815;48.386;11.738;2024-03-23T09:43:55;95823.13;;;7.58;100.00
48041;BME280;33815;48.386;11.738;2024-03-23T09:46:21;95830.06;;;7.57;100.00
48041;BME280;33815;48.386;11.738;2024-03-23T09:48:46;95823.22;;;7.48;100.00
48041;BME280;33815;48.386;11.738;2024-03-23T09:51:12;95824.97;;;7.47;100.00
48041;BME280;33815;48.386;11.738;2024-03-23T09:53:37;95823.47;;;7.45;100.00
48041;BME280;33815;48.386;11.738;2024-03-23T09:56:03;95831.63;;;7.50;100.00
48041;BME280;33815;48.386;11.738;2024-03-23T09:58:29;95821.19;;;7.42;100.00
48041;BME280;33815;48.386;11.738;2024-03-23T10:00:54;95838.75;;;7.48;100.00
48041;BME280;33815;48.386;11.738;2024-03-23T10:03:20;95849.78;;;7.50;100.00
48041;BME280;33815;48.386;11.738;2024-03-23T10:05:45;95851.56;;;7.49;100.00
48041;BME280;33815;48.386;11.738;2024-03-23T10:10:38;95871.78;;;7.46;100.00
48041;BME280;33815;48.386;11.738;2024-03-23T10:13:04;95864.75;;;7.20;100.00
48041;BME280;33815;48.386;11.738;2024-03-23T10:15:29;95869.69;;;7.13;100.00
48041;BME280;33815;48.386;11.738;2024-03-23T10:17:55;95846.09;;;6.89;100.00
48041;BME280;33815;48.386;11.738;2024-03-23T10:20:22;95864.13;;;6.90;100.00
48041;BME280;33815;48.386;11.738;2024-03-23T10:22:49;95855.31;;;6.73;100.00
48041;BME280;33815;48.386;11.738;2024-03-23T10:25:14;95864.03;;;6.82;100.00
48041;BME280;33815;48.386;11.738;2024-03-23T10:27:40;95851.38;;;6.97;100.00
48041;BME280;33815;48.386;11.738;2024-03-23T10:30:14;95837.91;;;6.93;100.00
48041;BME280;33815;48.386;11.738;2024-03-23T10:32:40;95858.00;;;7.09;100.00
48041;BME280;33815;48.386;11.738;2024-03-23T10:35:18;95850.75;;;7.13;100.00
48041;BME280;33815;48.386;11.738;2024-03-23T10:37:44;95864.06;;;7.18;100.00
48041;BME280;33815;48.386;11.738;2024-03-23T10:40:11;95868.00;;;7.22;100.00
48041;BME280;33815;48.386;11.738;2024-03-23T10:42:37;95856.53;;;7.25;100.00
48041;BME280;33815;48.386;11.738;2024-03-23T10:45:07;95861.25;;;7.47;100.00
48041;BME280;33815;48.386;11.738;2024-03-23T10:47:34;95861.41;;;7.64;100.00
48041;BME280;33815;48.386;11.738;2024-03-23T10:50:00;95863.78;;;7.57;100.00
48041;BME280;33815;48.386;11.738;2024-03-23T10:52:25;95880.97;;;7.76;100.00
48041;BME280;33815;48.386;11.738;2024-03-23T10:54:51;95896.69;;;7.75;100.00
48041;BME280;33815;48.386;11.738;2024-03-23T10:57:21;95893.94;;;7.58;100.00
48041;BME280;33815;48.386;11.738;2024-03-23T10:59:48;95907.50;;;7.34;100.00
48041;BME280;33815;48.386;11.738;2024-03-23T11:02:20;95917.63;;;7.27;100.00
48041;BME280;33815;48.386;11.738;2024-03-23T11:04:46;95915.25;;;7.16;100.00
48041;BME280;33815;48.386;11.738;2024-03-23T11:07:30;95939.31;;;7.26;100.00
48041;BME280;33815;48.386;11.738;2024-03-23T11:09:56;95937.63;;;7.35;100.00
48041;BME280;33815;48.386;11.738;2024-03-23T11:14:51;95946.75;;;7.57;100.00
48041;BME280;33815;48.386;11.738;2024-03-23T11:17:20;95946.97;;;7.46;100.00
48041;BME280;33815;48.386;11.738;2024-03-23T11:20:05;95965.91;;;7.56;100.00
48041;BME280;33815;48.386;11.738;2024-03-23T11:25:20;95980.53;;;7.47;100.00
48041;BME280;33815;48.386;11.738;2024-03-23T11:27:53;95997.38;;;7.61;100.00
48041;BME280;33815;48.386;11.738;2024-03-23T11:30:19;95972.03;;;7.55;100.00
48041;BME280;33815;48.386;11.738;2024-03-23T11:32:46;95954.47;;;7.67;100.00
48041;BME280;33815;48.386;11.738;2024-03-23T11:35:41;95986.22;;;7.79;100.00
48041;BME280;33815;48.386;11.738;2024-03-23T11:38:16;95983.34;;;8.00;100.00
48041;BME280;33815;48.386;11.738;2024-03-23T11:40:46;95961.97;;;7.88;92.44
48041;BME280;33815;48.386;11.738;2024-03-23T11:43:16;95956.28;;;8.02;95.79
48041;BME280;33815;48.386;11.738;2024-03-23T11:45:49;95949.06;;;8.14;91.16
48041;BME280;33815;48.386;11.738;2024-03-23T11:48:21;95963.69;;;8.41;88.18
48041;BME280;33815;48.386;11.738;2024-03-23T11:50:54;95966.38;;;8.50;87.31
48041;BME280;33815;48.386;11.738;2024-03-23T11:53:21;95957.63;;;8.51;87.55
48041;BME280;33815;48.386;11.738;2024-03-23T11:55:48;95976.28;;;8.72;87.66
48041;BME280;33815;48.386;11.738;2024-03-23T11:58:14;95970.69;;;8.94;84.19
48041;BME280;33815;48.386;11.738;2024-03-23T12:00:40;95980.00;;;9.04;78.18
48041;BME280;33815;48.386;11.738;2024-03-23T12:03:06;95957.47;;;9.21;81.65
48041;BME280;33815;48.386;11.738;2024-03-23T12:05:32;95945.38;;;9.38;79.22
48041;BME280;33815;48.386;11.738;2024-03-23T12:10:48;95969.19;;;9.76;74.25
48041;BME280;33815;48.386;11.738;2024-03-23T12:13:21;95951.09;;;9.58;71.54
48041;BME280;33815;48.386;11.738;2024-03-23T12:15:49;95934.00;;;9.48;74.04
48041;BME280;33815;48.386;11.738;2024-03-23T12:18:15;95941.16;;;9.46;72.54
48041;BME280;33815;48.386;11.738;2024-03-23T12:20:40;95963.19;;;9.25;72.19
48041;BME280;33815;48.386;11.738;2024-03-23T12:23:11;95968.22;;;8.84;77.09
48041;BME280;33815;48.386;11.738;2024-03-23T12:25:37;95960.97;;;8.69;74.39
48041;BME280;33815;48.386;11.738;2024-03-23T12:28:03;95947.38;;;8.49;76.59
48041;BME280;33815;48.386;11.738;2024-03-23T12:30:30;95936.69;;;8.52;76.42
48041;BME280;33815;48.386;11.738;2024-03-23T12:32:55;95958.94;;;8.55;74.92
48041;BME280;33815;48.386;11.738;2024-03-23T12:35:20;95950.69;;;8.60;73.54
48041;BME280;33815;48.386;11.738;2024-03-23T12:37:45;95957.63;;;8.51;75.00
48041;BME280;33815;48.386;11.738;2024-03-23T12:40:11;95952.72;;;8.48;72.36
48041;BME280;33815;48.386;11.738;2024-03-23T12:42:36;95929.50;;;8.46;72.59
48041;BME280;33815;48.386;11.738;2024-03-23T12:45:01;95916.66;;;8.71;72.89
48041;BME280;33815;48.386;11.738;2024-03-23T12:47:28;95931.97;;;8.82;70.28
48041;BME280;33815;48.386;11.738;2024-03-23T12:49:55;95938.25;;;8.71;69.66
48041;BME280;33815;48.386;11.738;2024-03-23T12:52:20;95928.84;;;8.70;69.72
48041;BME280;33815;48.386;11.738;2024-03-23T12:54:46;95943.50;;;8.80;69.23
48041;BME280;33815;48.386;11.738;2024-03-23T12:57:12;95935.09;;;8.60;67.28
48041;BME280;33815;48.386;11.738;2024-03-23T12:59:37;95955.03;;;8.33;68.44
48041;BME280;33815;48.386;11.738;2024-03-23T13:02:03;95941.63;;;8.37;69.01
48041;BME280;33815;48.386;11.738;2024-03-23T13:04:28;95935.34;;;8.22;70.85
48041;BME280;33815;48.386;11.738;2024-03-23T13:06:53;95947.03;;;8.26;68.70
48041;BME280;33815;48.386;11.738;2024-03-23T13:09:18;95947.75;;;8.36;67.88
48041;BME280;33815;48.386;11.738;2024-03-23T13:11:44;95955.63;;;8.27;68.86
48041;BME280;33815;48.386;11.738;2024-03-23T13:14:09;95955.81;;;8.25;68.16
48041;BME280;33815;48.386;11.738;2024-03-23T13:16:34;95962.88;;;8.41;68.76
48041;BME280;33815;48.386;11.738;2024-03-23T13:19:00;95971.78;;;8.38;70.50
48041;BME280;33815;48.386;11.738;2024-03-23T13:21:26;95966.22;;;8.51;68.47
48041;BME280;33815;48.386;11.738;2024-03-23T13:23:52;95944.56;;;8.24;67.92
48041;BME280;33815;48.386;11.738;2024-03-23T13:26:17;95948.00;;;8.25;67.97
48041;BME280;33815;48.386;11.738;2024-03-23T13:28:42;95948.81;;;8.26;69.10
48041;BME280;33815;48.386;11.738;2024-03-23T13:31:08;95950.69;;;8.15;70.51
48041;BME280;33815;48.386;11.738;2024-03-23T13:33:34;95949.94;;;8.05;71.37
48041;BME280;33815;48.386;11.738;2024-03-23T13:35:59;95934.84;;;8.00;71.42
48041;BME280;33815;48.386;11.738;2024-03-23T13:38:25;95959.81;;;8.01;72.49
48041;BME280;33815;48.386;11.738;2024-03-23T13:40:55;95965.00;;;8.01;73.91
48041;BME280;33815;48.386;11.738;2024-03-23T13:43:25;95964.50;;;7.98;73.91
48041;BME280;33815;48.386;11.738;2024-03-23T13:45:55;95947.66;;;7.84;70.62
48041;BME280;33815;48.386;11.738;2024-03-23T13:48:21;95968.78;;;7.89;72.56
48041;BME280;33815;48.386;11.738;2024-03-23T13:50:47;95972.56;;;7.77;73.84
48041;BME280;33815;48.386;11.738;2024-03-23T13:53:15;95977.22;;;6.99;77.27
48041;BME280;33815;48.386;11.738;2024-03-23T13:55:47;95989.22;;;6.53;81.73